Terminal Aerodrome Forecast
Issued by NWS Quad Cities IA IL

Home | Current Version | Previous Version | Text Only | Print | Product List | Glossary On
Versions: 1 2 3 4 5 6 7 8 9 10 11 12 13 14 15 16 17 18 19 20 21 22 23 24 25 26 27 28 29 30 31 32 33 34 35 36 37 38
000
FTUS43 KDVN 291736
TAFDBQ
TAF
KDBQ 291736Z 2918/3018 VRB04KT P6SM SCT015 BKN200
     FM292000 VRB04KT P6SM VCSH SCT030 BKN150
     FM292200 VRB04KT P6SM VCTS SCT030CB BKN150
      TEMPO 2923/3003 3SM TSRA BR BKN025CB
     FM300600 VRB03KT 4SM BR VCSH SCT030 BKN150
     FM301000 VRB03KT 1SM BR VCSH SCT005 BKN150
     FM301400 VRB03KT 4SM BR FEW005 BKN150=

USA.gov is the U.S. government's official web portal to all federal, state and local government web resources and services.